Time;durP1;ratioP1;P1;durP2;ratioP2;P2;SDS_P1;SDS_P2;PMS_P1;PMS_P2;Temp;Humidity;BMP_temperature;BMP_pressure;BME280_temperature;BME280_humidity;BME280_pressure;Samples;Min_cycle;Max_cycle;Signal;HPM_P1;HPM_P2
2022/03/28 00:01:19;;;;;;;13.67;9.33;;;;;;;9.85;57.70;100515.88;5113634;28;20194;-53
2022/03/28 00:03:47;;;;;;;16.37;8.73;;;;;;;9.79;57.94;100509.03;5113647;28;20684;-53
2022/03/28 00:06:14;;;;;;;19.93;8.83;;;;;;;9.73;58.13;100513.41;5113232;28;20191;-54
2022/03/28 00:08:41;;;;;;;17.00;9.17;;;;;;;9.70;59.11;100516.03;5113408;28;20198;-53
2022/03/28 00:11:07;;;;;;;17.83;9.37;;;;;;;9.48;59.60;100481.66;5112968;28;20198;-55
2022/03/28 00:13:35;;;;;;;11.57;8.93;;;;;;;9.48;59.53;100491.19;5113338;28;20198;-54
2022/03/28 00:16:04;;;;;;;18.37;8.73;;;;;;;9.65;59.99;100510.03;5112720;28;20233;-53
2022/03/28 00:18:31;;;;;;;21.57;9.30;;;;;;;9.63;60.30;100509.19;5113171;28;20264;-53
2022/03/28 00:20:58;;;;;;;14.30;8.77;;;;;;;9.59;60.20;100510.09;5112968;28;20222;-53
2022/03/28 00:23:25;;;;;;;11.80;8.60;;;;;;;9.51;60.40;100501.50;5113208;28;20199;-53
2022/03/28 00:25:52;;;;;;;13.47;8.70;;;;;;;9.33;61.70;100503.41;5113316;28;20440;-52
2022/03/28 00:28:19;;;;;;;17.87;9.23;;;;;;;9.40;61.33;100514.56;5113198;28;20206;-54
2022/03/28 00:30:46;;;;;;;15.70;9.07;;;;;;;9.42;61.48;100518.00;5112912;28;20194;-54
2022/03/28 00:33:14;;;;;;;14.37;9.30;;;;;;;9.38;62.06;100522.34;5112621;28;20190;-53
2022/03/28 00:35:41;;;;;;;16.13;8.67;;;;;;;9.34;62.22;100523.25;5112664;28;20214;-53
2022/03/28 00:38:09;;;;;;;14.80;9.03;;;;;;;9.26;63.56;100522.44;5113119;28;20202;-53
2022/03/28 00:40:36;;;;;;;16.40;8.97;;;;;;;9.19;63.79;100530.28;5112726;28;20226;-53
2022/03/28 00:43:05;;;;;;;15.63;8.90;;;;;;;9.07;64.87;100538.97;5112592;28;20197;-53
2022/03/28 00:45:33;;;;;;;11.90;8.67;;;;;;;9.00;65.76;100529.53;5112638;28;20264;-53
2022/03/28 00:48:00;;;;;;;15.00;8.40;;;;;;;9.07;66.19;100541.56;5112413;28;20202;-53
2022/03/28 00:50:29;;;;;;;10.87;8.70;;;;;;;8.94;67.04;100527.84;5112629;28;20591;-55
2022/03/28 00:52:57;;;;;;;18.13;9.63;;;;;;;8.94;67.27;100534.75;5112132;28;20195;-53
2022/03/28 00:55:25;;;;;;;13.70;9.17;;;;;;;8.87;68.31;100528.75;5112525;28;20734;-56
2022/03/28 00:57:52;;;;;;;17.00;8.90;;;;;;;8.93;67.79;100540.78;5112576;28;20355;-56
2022/03/28 01:00:19;;;;;;;14.63;8.80;;;;;;;8.72;68.97;100524.50;5112207;28;20678;-56
2022/03/28 01:02:47;;;;;;;15.53;8.60;;;;;;;8.71;70.52;100540.91;5112449;28;20662;-56
2022/03/28 01:05:15;;;;;;;12.37;9.10;;;;;;;8.58;71.22;100539.22;5112163;28;20191;-55
2022/03/28 01:07:43;;;;;;;19.67;8.67;;;;;;;8.51;71.97;100532.38;5112234;28;20238;-57
2022/03/28 01:10:12;;;;;;;16.47;9.33;;;;;;;8.48;73.19;100545.31;5112113;28;20191;-57
2022/03/28 01:12:42;;;;;;;14.30;9.70;;;;;;;8.45;73.65;100545.34;5112119;28;20705;-56
2022/03/28 01:15:10;;;;;;;13.57;9.43;;;;;;;8.32;74.35;100523.84;5111791;28;20218;-56
2022/03/28 01:20:24;;;;;;;16.10;9.50;;;;;;;8.33;76.13;100537.63;5112227;28;20194;-54
2022/03/28 01:22:53;;;;;;;16.70;9.27;;;;;;;8.21;76.82;100519.53;5111954;28;20199;-53
2022/03/28 01:25:23;;;;;;;27.00;10.63;;;;;;;8.26;76.96;100543.63;5112258;28;20559;-53
2022/03/28 01:27:52;;;;;;;15.13;10.27;;;;;;;8.15;78.59;100540.22;5112037;28;20276;-53
2022/03/28 01:30:20;;;;;;;12.00;9.07;;;;;;;8.17;79.29;100536.78;5111839;28;20684;-56
2022/03/28 01:32:47;;;;;;;18.77;9.57;;;;;;;8.12;79.89;100541.13;5112065;28;20609;-56
2022/03/28 01:35:14;;;;;;;17.33;10.73;;;;;;;8.03;80.07;100525.59;5111763;28;20229;-53
2022/03/28 01:37:40;;;;;;;19.17;11.73;;;;;;;8.06;80.70;100540.25;5111736;28;20198;-53
2022/03/28 01:40:12;;;;;;;21.93;12.47;;;;;;;8.00;81.24;100539.41;5111460;28;20199;-54
2022/03/28 01:42:39;;;;;;;18.57;12.43;;;;;;;7.97;81.86;100539.41;5111670;28;20202;-54
2022/03/28 01:45:06;;;;;;;24.37;12.03;;;;;;;8.01;81.41;100533.34;5111524;28;20229;-52
2022/03/28 01:47:33;;;;;;;15.77;11.27;;;;;;;7.85;83.03;100526.50;5111472;28;20708;-56
2022/03/28 01:50:00;;;;;;;16.37;9.87;;;;;;;7.81;83.71;100537.69;5111382;28;20205;-53
2022/03/28 01:52:27;;;;;;;16.43;11.57;;;;;;;7.76;84.46;100536.00;5111623;28;20580;-53
2022/03/28 01:54:54;;;;;;;14.10;11.10;;;;;;;7.72;85.52;100532.53;5111346;28;20290;-56
2022/03/28 01:57:22;;;;;;;16.27;10.73;;;;;;;7.74;86.43;100550.63;5111308;28;20191;-57
2022/03/28 01:59:49;;;;;;;14.43;10.47;;;;;;;7.67;87.70;100549.78;5111586;28;20194;-57
2022/03/28 02:02:16;;;;;;;21.67;11.70;;;;;;;7.63;88.54;100546.34;5111097;28;20197;-56
2022/03/28 02:04:43;;;;;;;15.63;10.73;;;;;;;7.55;90.13;100547.22;5110555;28;20200;-56
2022/03/28 02:07:10;;;;;;;16.30;11.03;;;;;;;7.51;90.85;100548.06;5110881;28;20700;-57
2022/03/28 02:09:37;;;;;;;17.33;11.23;;;;;;;7.55;92.09;100542.06;5110943;28;20202;-57
2022/03/28 02:12:04;;;;;;;21.93;10.43;;;;;;;7.44;93.14;100544.63;5110884;28;20201;-56
2022/03/28 02:14:32;;;;;;;20.57;11.70;;;;;;;7.50;93.24;100543.75;5111038;28;20615;-57
2022/03/28 02:16:59;;;;;;;18.03;11.87;;;;;;;7.50;94.02;100546.34;5110650;28;20236;-54
2022/03/28 02:19:26;;;;;;;24.50;12.83;;;;;;;7.41;95.73;100557.53;5110966;28;20580;-53
2022/03/28 02:21:53;;;;;;;22.73;11.53;;;;;;;7.43;96.57;100547.22;5110820;28;20201;-53
2022/03/28 02:24:20;;;;;;;16.43;11.23;;;;;;;7.34;97.80;100547.19;5111075;28;20195;-53
2022/03/28 02:26:48;;;;;;;16.23;11.43;;;;;;;7.39;97.73;100558.38;5110755;28;20190;-52
2022/03/28 02:29:15;;;;;;;22.57;11.60;;;;;;;7.30;99.41;100556.66;5110510;28;20205;-52
2022/03/28 02:31:43;;;;;;;20.53;12.53;;;;;;;7.23;100.00;100560.09;5110650;28;20198;-52
2022/03/28 02:34:10;;;;;;;19.67;12.83;;;;;;;7.28;100.00;100554.06;5110355;28;20194;-53
2022/03/28 02:36:37;;;;;;;20.93;11.97;;;;;;;7.24;100.00;100562.66;5110559;28;20218;-53
2022/03/28 02:39:04;;;;;;;15.73;11.77;;;;;;;7.17;100.00;100558.38;5110237;28;20286;-53
2022/03/28 02:41:31;;;;;;;30.43;13.43;;;;;;;7.16;100.00;100564.38;5110563;28;20652;-53
2022/03/28 02:43:58;;;;;;;21.47;12.73;;;;;;;7.19;100.00;100571.28;5110486;28;20230;-52
2022/03/28 02:46:25;;;;;;;23.30;14.63;;;;;;;7.17;100.00;100568.69;5110436;28;20273;-52
2022/03/28 02:48:53;;;;;;;24.17;14.20;;;;;;;7.15;100.00;100573.00;5110347;28;20277;-53
2022/03/28 02:51:20;;;;;;;25.67;12.57;;;;;;;7.16;100.00;100566.97;5110339;28;20199;-52
2022/03/28 02:53:47;;;;;;;26.87;13.50;;;;;;;7.04;100.00;100554.03;5110399;28;20205;-53
2022/03/28 02:56:14;;;;;;;21.27;12.80;;;;;;;7.13;100.00;100569.53;5110158;28;20218;-53
2022/03/28 02:58:40;;;;;;;25.27;13.87;;;;;;;7.10;100.00;100568.69;5110438;28;20723;-54
2022/03/28 03:01:07;;;;;;;33.20;13.83;;;;;;;7.07;100.00;100569.53;5110001;28;20200;-54
2022/03/28 03:03:34;;;;;;;18.33;13.37;;;;;;;7.10;100.00;100581.59;5110165;28;20209;-53
2022/03/28 03:06:03;;;;;;;21.47;13.17;;;;;;;7.03;100.00;100569.50;5110602;28;20557;-53
2022/03/28 03:08:30;;;;;;;18.90;13.17;;;;;;;7.03;100.00;100569.50;5110449;28;20216;-54
2022/03/28 03:10:57;;;;;;;17.00;10.60;;;;;;;6.93;100.00;100576.38;5110231;28;20285;-57
2022/03/28 03:13:24;;;;;;;24.90;12.43;;;;;;;6.95;100.00;100582.41;5110271;28;20199;-56
2022/03/28 03:15:51;;;;;;;19.50;12.80;;;;;;;6.97;100.00;100596.19;5110921;28;20616;-53
2022/03/28 03:18:18;;;;;;;20.00;12.57;;;;;;;6.92;100.00;100578.09;5114242;28;20198;-53
2022/03/28 03:20:45;;;;;;;26.10;12.50;;;;;;;6.93;100.00;100581.53;5114317;28;20732;-52
2022/03/28 03:23:13;;;;;;;21.23;12.13;;;;;;;6.93;100.00;100584.13;5114100;28;20200;-57
2022/03/28 03:25:40;;;;;;;27.73;12.23;;;;;;;6.91;100.00;100594.44;5114175;28;20230;-56
2022/03/28 03:28:07;;;;;;;21.43;11.40;;;;;;;6.89;100.00;100590.13;5114017;28;20286;-54
2022/03/28 03:30:34;;;;;;;20.17;12.80;;;;;;;6.87;100.00;100609.91;5114066;28;20298;-56
2022/03/28 03:33:01;;;;;;;18.63;11.00;;;;;;;6.78;100.00;100597.81;5114089;28;20210;-55
2022/03/28 03:35:28;;;;;;;21.10;11.63;;;;;;;6.72;100.00;100596.94;5113963;28;20591;-53
2022/03/28 03:37:55;;;;;;;19.70;13.10;;;;;;;6.78;100.00;100617.59;5114050;28;20201;-56
2022/03/28 03:40:23;;;;;;;23.33;11.73;;;;;;;6.69;100.00;100597.78;5113898;28;20198;-55
2022/03/28 03:42:50;;;;;;;17.83;11.93;;;;;;;6.75;100.00;100615.03;5114419;28;20198;-52
2022/03/28 03:45:17;;;;;;;20.50;11.70;;;;;;;6.75;100.00;100617.63;5113722;28;20205;-53
2022/03/28 03:47:44;;;;;;;19.77;12.20;;;;;;;6.79;100.00;100621.91;5113877;28;20281;-53
2022/03/28 03:50:11;;;;;;;17.80;11.53;;;;;;;6.69;100.00;100621.00;5113820;28;20580;-52
2022/03/28 03:52:38;;;;;;;23.17;11.60;;;;;;;6.70;100.00;100616.72;5113680;28;20194;-53
2022/03/28 03:55:07;;;;;;;24.23;11.30;;;;;;;6.78;100.00;100623.63;5113850;28;20201;-52
2022/03/28 03:57:35;;;;;;;17.73;12.37;;;;;;;6.76;100.00;100624.50;5113583;28;20215;-52
2022/03/28 04:00:03;;;;;;;18.53;11.27;;;;;;;6.72;100.00;100625.34;5113474;28;20191;-57
2022/03/28 04:02:30;;;;;;;21.33;12.47;;;;;;;6.76;100.00;100627.94;5113649;28;20194;-56
2022/03/28 04:04:57;;;;;;;22.93;12.13;;;;;;;6.77;100.00;100636.56;5113361;28;20285;-56
2022/03/28 04:07:24;;;;;;;19.50;11.80;;;;;;;6.75;100.00;100635.69;5113421;28;20206;-56
2022/03/28 04:09:51;;;;;;;19.13;12.40;;;;;;;6.71;100.00;100631.34;5113487;28;20719;-55
2022/03/28 04:12:18;;;;;;;19.73;12.00;;;;;;;6.76;100.00;100639.97;5113255;28;20230;-55
2022/03/28 04:14:47;;;;;;;25.10;13.80;;;;;;;6.74;100.00;100642.56;5113491;28;20277;-55
2022/03/28 04:17:14;;;;;;;30.80;13.33;;;;;;;6.78;100.00;100644.28;5112928;28;20231;-56
2022/03/28 04:19:41;;;;;;;27.27;13.73;;;;;;;6.85;100.00;100650.34;5113297;28;20670;-56
2022/03/28 04:22:07;;;;;;;20.83;12.50;;;;;;;6.87;100.00;100653.78;5113095;28;20199;-55
2022/03/28 04:24:34;;;;;;;16.93;11.50;;;;;;;6.83;100.00;100660.66;5112925;28;20195;-56
2022/03/28 04:27:01;;;;;;;19.63;11.73;;;;;;;6.88;100.00;100661.50;5112505;28;20195;-56
2022/03/28 04:29:28;;;;;;;22.83;12.00;;;;;;;6.97;100.00;100660.72;5112555;28;20194;-55
2022/03/28 04:31:57;;;;;;;20.53;12.57;;;;;;;7.02;100.00;100669.31;5113063;28;20269;-55
2022/03/28 04:34:24;;;;;;;20.30;11.90;;;;;;;7.04;100.00;100670.19;5112879;28;20233;-57
2022/03/28 04:36:50;;;;;;;20.53;11.77;;;;;;;6.99;100.00;100673.63;5112835;28;20215;-56
2022/03/28 04:39:18;;;;;;;23.47;11.67;;;;;;;7.06;100.00;100665.91;5113132;28;20658;-57
2022/03/28 04:41:45;;;;;;;20.03;11.67;;;;;;;7.10;100.00;100677.13;5112991;28;20642;-56
2022/03/28 04:44:12;;;;;;;27.27;13.13;;;;;;;7.23;100.00;100678.88;5112641;28;20198;-57
2022/03/28 04:46:39;;;;;;;20.03;12.70;;;;;;;7.36;100.00;100677.19;5112914;28;20195;-57
2022/03/28 04:49:10;;;;;;;26.00;14.47;;;;;;;7.42;100.00;100691.00;5129582;27;20200;-57
2022/03/28 04:51:37;;;;;;;26.30;14.70;;;;;;;7.46;100.00;100684.97;5127025;27;20252;-55
2022/03/28 04:54:04;;;;;;;23.70;13.83;;;;;;;7.59;100.00;100685.84;5119259;27;20197;-56
2022/03/28 04:56:30;;;;;;;26.67;13.87;;;;;;;7.55;98.81;100689.31;5118910;27;20702;-57
2022/03/28 04:58:58;;;;;;;19.13;12.57;;;;;;;7.68;98.61;100693.63;5112441;28;20689;-57
2022/03/28 05:01:25;;;;;;;24.27;13.07;;;;;;;7.78;97.42;100697.09;5112384;28;20195;-56
2022/03/28 05:03:52;;;;;;;28.33;13.57;;;;;;;7.86;96.70;100703.13;5108955;28;20218;-57
2022/03/28 05:06:20;;;;;;;25.50;14.47;;;;;;;7.93;95.65;100694.50;5111786;28;20221;-58
2022/03/28 05:08:47;;;;;;;27.07;13.20;;;;;;;7.96;95.49;100694.53;5111820;28;20815;-56
2022/03/28 05:11:14;;;;;;;25.13;13.03;;;;;;;8.13;94.59;100704.84;5111624;28;20230;-57
2022/03/28 05:13:41;;;;;;;23.50;12.73;;;;;;;8.31;93.35;100702.28;5111518;28;20301;-56
2022/03/28 05:16:07;;;;;;;25.70;12.63;;;;;;;8.55;89.68;100702.28;5111730;28;20705;-57
2022/03/28 05:18:34;;;;;;;22.03;12.20;;;;;;;8.95;88.12;100697.00;5114239;27;20220;-55
2022/03/28 05:21:01;;;;;;;23.50;12.90;;;;;;;9.86;79.86;100700.84;5125624;27;20222;-56
2022/03/28 05:23:30;;;;;;;24.53;11.77;;;;;;;11.09;71.88;100702.31;5124817;27;20219;-57
2022/03/28 05:25:56;;;;;;;19.97;11.70;;;;;;;12.30;65.31;100700.56;5119308;27;20222;-54
2022/03/28 05:28:23;;;;;;;16.37;11.37;;;;;;;12.77;59.65;100704.06;5120415;27;20226;-53
2022/03/28 05:30:51;;;;;;;17.43;11.10;;;;;;;13.04;57.95;100708.75;5121158;27;20222;-53
2022/03/28 05:33:18;;;;;;;23.03;10.87;;;;;;;14.10;55.39;100710.81;5118501;27;20221;-57
2022/03/28 05:35:45;;;;;;;19.57;11.50;;;;;;;14.99;51.85;100717.22;5115890;27;20314;-57
2022/03/28 05:38:13;;;;;;;23.87;11.97;;;;;;;15.71;49.87;100710.75;5119976;27;22126;-57
2022/03/28 05:40:41;;;;;;;29.13;18.17;;;;;;;16.41;47.08;100713.72;5116047;27;20697;-57
2022/03/28 05:43:08;;;;;;;33.67;19.17;;;;;;;16.03;46.70;100719.41;5119685;27;20234;-57
2022/03/28 05:45:36;;;;;;;25.90;16.47;;;;;;;15.88;47.17;100726.81;5121069;27;20322;-55
2022/03/28 05:48:03;;;;;;;24.90;15.07;;;;;;;16.34;45.29;100725.34;5118551;27;20225;-56
2022/03/28 05:50:30;;;;;;;25.47;17.43;;;;;;;16.09;45.84;100729.66;5119646;27;20594;-57
2022/03/28 05:52:58;;;;;;;42.33;24.73;;;;;;;16.08;49.27;100726.19;5111087;28;20610;-59
2022/03/28 05:55:24;;;;;;;33.10;23.73;;;;;;;17.32;44.10;100723.63;5115567;27;20244;-57
2022/03/28 05:57:53;;;;;;;33.60;22.60;;;;;;;18.08;42.24;100730.31;5112863;27;20226;-57
2022/03/28 06:00:20;;;;;;;28.57;17.87;;;;;;;18.78;40.08;100733.53;5122799;27;20217;-58
2022/03/28 06:02:47;;;;;;;21.87;14.33;;;;;;;18.92;39.59;100724.19;5125449;27;20335;-57
2022/03/28 06:05:14;;;;;;;24.10;12.53;;;;;;;19.26;38.23;100727.03;5115193;27;20780;-54
2022/03/28 06:07:42;;;;;;;22.57;10.70;;;;;;;18.83;38.18;100733.34;5110911;28;20225;-44
2022/03/28 06:10:10;;;;;;;36.00;14.60;;;;;;;18.92;38.32;100734.72;5110551;28;20214;-51
2022/03/28 06:12:36;;;;;;;62.83;21.27;;;;;;;19.52;37.78;100732.00;5110646;28;20637;-53
2022/03/28 06:15:06;;;;;;;63.20;20.70;;;;;;;19.72;36.96;100723.16;5110027;28;20232;-52
2022/03/28 06:17:33;;;;;;;39.72;16.45;;;;;;;20.02;36.65;100731.38;5109918;28;20238;-51
2022/03/28 06:20:03;;;;;;;28.45;13.00;;;;;;;19.69;36.67;100733.84;5110298;28;20225;-52
2022/03/28 06:22:30;;;;;;;23.58;10.65;;;;;;;20.10;35.85;100728.34;5110644;28;20317;-52
2022/03/28 06:24:57;;;;;;;23.55;10.70;;;;;;;20.28;35.61;100732.75;5109445;28;20604;-52
2022/03/28 06:27:24;;;;;;;23.38;12.32;;;;;;;21.22;34.18;100727.06;5109795;28;20202;-51
2022/03/28 06:29:51;;;;;;;17.02;10.70;;;;;;;21.49;33.52;100730.84;5110658;28;20199;-52
2022/03/28 06:32:20;;;;;;;14.77;9.77;;;;;;;21.00;33.49;100716.72;5110877;28;20194;-53
2022/03/28 06:34:48;;;;;;;15.15;9.93;;;;;;;21.33;33.43;100725.53;5110668;28;20248;-51
2022/03/28 06:37:16;;;;;;;20.23;9.93;;;;;;;21.50;33.19;100732.56;5110322;28;20218;-52
2022/03/28 06:39:43;;;;;;;13.38;9.52;;;;;;;22.26;31.92;100727.41;5110583;27;20195;-52
2022/03/28 06:42:10;;;;;;;18.05;10.35;;;;;;;22.68;31.36;100742.59;5110420;28;20200;-52
2022/03/28 06:44:37;;;;;;;19.30;10.98;;;;;;;22.38;31.40;100740.78;5110390;28;20194;-52
2022/03/28 06:47:04;;;;;;;15.90;9.98;;;;;;;21.89;32.00;100736.59;5110529;28;20722;-52
2022/03/28 06:49:34;;;;;;;11.82;10.38;;;;;;;22.61;30.89;100733.28;5110454;28;20198;-53
2022/03/28 06:52:01;;;;;;;20.60;10.88;;;;;;;22.61;31.18;100730.66;5110107;28;20679;-51
2022/03/28 06:54:28;;;;;;;18.65;9.82;;;;;;;23.06;30.39;100732.34;5110242;28;20726;-51
2022/03/28 06:56:55;;;;;;;18.60;10.23;;;;;;;22.50;30.67;100726.00;5110029;28;20214;-51
2022/03/28 06:59:23;;;;;;;17.63;9.60;;;;;;;23.12;29.54;100724.91;5110187;28;20194;-51
2022/03/28 07:01:50;;;;;;;13.90;9.80;;;;;;;23.40;29.14;100723.16;5110193;28;20191;-52
2022/03/28 07:04:18;;;;;;;15.10;10.23;;;;;;;24.12;28.56;100722.94;5110307;28;20202;-51
2022/03/28 07:06:47;;;;;;;15.30;9.88;;;;;;;23.51;29.26;100720.72;5110334;28;20666;-52
2022/03/28 07:09:13;;;;;;;12.38;9.40;;;;;;;24.07;28.49;100724.16;5110251;28;20541;-52
2022/03/28 07:11:40;;;;;;;12.55;9.50;;;;;;;24.01;28.22;100719.28;5110077;28;20286;-52
2022/03/28 07:14:08;;;;;;;11.45;9.48;;;;;;;23.15;29.43;100723.84;5110022;28;20198;-52
2022/03/28 07:16:35;;;;;;;12.60;10.88;;;;;;;22.99;29.62;100713.34;5109842;28;20226;-53
2022/03/28 07:19:02;;;;;;;11.07;9.70;;;;;;;22.50;30.72;100715.41;5109971;28;20194;-53
2022/03/28 07:21:29;;;;;;;12.98;10.65;;;;;;;23.26;29.80;100716.06;5110260;28;20277;-52
2022/03/28 07:23:57;;;;;;;14.73;9.00;;;;;;;24.43;28.27;100713.81;5109881;28;20289;-52
2022/03/28 07:26:25;;;;;;;14.65;8.80;;;;;;;25.24;27.37;100710.91;5109974;28;20198;-53
2022/03/28 07:28:52;;;;;;;13.40;9.55;;;;;;;25.09;27.37;100710.16;5109679;28;20194;-52
2022/03/28 07:31:19;;;;;;;12.95;9.27;;;;;;;25.09;27.49;100712.81;5109541;28;20201;-51
2022/03/28 07:33:46;;;;;;;15.10;9.55;;;;;;;25.71;26.67;100712.84;5110223;28;20279;-53
2022/03/28 07:36:13;;;;;;;12.90;10.43;;;;;;;26.06;26.26;100712.06;5109811;28;20639;-52
2022/03/28 07:38:40;;;;;;;16.85;10.20;;;;;;;25.44;26.87;100709.47;5104784;28;20226;-52
2022/03/28 07:41:08;;;;;;;13.25;9.80;;;;;;;25.40;27.15;100703.50;5109256;28;20223;-52
2022/03/28 07:43:35;;;;;;;14.43;10.18;;;;;;;25.81;26.71;100703.22;5121373;28;20691;-53
2022/03/28 07:46:02;;;;;;;12.82;9.50;;;;;;;26.04;26.27;100705.03;5117917;28;20222;-51
2022/03/28 07:48:29;;;;;;;21.27;10.73;;;;;;;26.12;26.66;100698.28;5118707;28;20228;-51
2022/03/28 07:50:57;;;;;;;13.35;9.30;;;;;;;25.93;26.87;100697.00;5120554;28;20282;-51
2022/03/28 07:53:24;;;;;;;24.08;10.80;;;;;;;25.80;26.72;100696.19;5129256;27;20218;-51
2022/03/28 07:55:51;;;;;;;16.40;10.07;;;;;;;26.30;26.35;100699.59;5129931;28;20260;-51
2022/03/28 07:58:19;;;;;;;16.88;10.77;;;;;;;25.96;28.56;100691.44;5129816;27;20230;-51
2022/03/28 08:00:47;;;;;;;17.40;9.80;;;;;;;26.45;26.38;100687.78;5120092;28;20222;-53
2022/03/28 08:03:14;;;;;;;17.73;9.60;;;;;;;26.96;25.71;100690.09;5110846;28;20221;-51
2022/03/28 08:05:40;;;;;;;16.38;9.70;;;;;;;27.45;25.55;100685.19;5112952;28;20222;-53
2022/03/28 08:08:08;;;;;;;12.90;9.73;;;;;;;27.73;24.84;100683.00;5112885;28;20231;-51
2022/03/28 08:10:35;;;;;;;19.80;10.80;;;;;;;27.40;26.53;100681.22;5112650;28;20222;-52
2022/03/28 08:13:02;;;;;;;13.52;10.68;;;;;;;27.67;26.53;100684.34;5101572;28;20760;-51
2022/03/28 08:15:31;;;;;;;16.23;11.23;;;;;;;26.67;27.85;100679.84;5092456;28;20235;-53
2022/03/28 08:17:59;;;;;;;17.42;10.45;;;;;;;26.09;26.92;100677.22;5091983;28;20227;-53
2022/03/28 08:20:27;;;;;;;15.30;10.45;;;;;;;26.02;26.81;100675.03;5100802;28;20626;-52
2022/03/28 08:22:54;;;;;;;18.83;10.52;;;;;;;26.58;26.17;100659.25;5112504;28;20694;-53
2022/03/28 08:25:23;;;;;;;16.40;10.57;;;;;;;24.92;28.08;100646.72;5113226;28;20218;-52
2022/03/28 08:27:50;;;;;;;15.45;10.20;;;;;;;23.05;30.82;100661.78;5113321;28;20670;-54
2022/03/28 08:30:17;;;;;;;12.68;10.13;;;;;;;21.56;32.71;100652.94;5113088;28;20197;-53
2022/03/28 08:32:47;;;;;;;14.98;11.85;;;;;;;19.45;35.75;100643.63;5112540;28;20201;-53
2022/03/28 08:35:14;;;;;;;12.35;9.98;;;;;;;18.30;38.81;100643.56;5112422;28;20199;-53
2022/03/28 08:37:41;;;;;;;14.10;10.48;;;;;;;17.70;40.28;100634.69;5112525;28;20218;-53
2022/03/28 08:40:09;;;;;;;16.45;10.40;;;;;;;17.88;39.70;100633.94;5112586;28;20310;-54
2022/03/28 08:42:36;;;;;;;15.93;10.65;;;;;;;17.67;40.41;100634.81;5112565;28;20205;-51
2022/03/28 08:45:04;;;;;;;14.43;10.27;;;;;;;17.21;41.68;100623.47;5112566;28;20316;-50
2022/03/28 08:47:32;;;;;;;13.23;11.03;;;;;;;17.33;41.12;100614.25;5112549;28;20191;-52
2022/03/28 08:50:01;;;;;;;25.23;11.30;;;;;;;17.41;41.38;100597.28;5112704;28;20194;-52
2022/03/28 08:52:27;;;;;;;15.87;11.03;;;;;;;17.47;41.25;100611.94;5112539;28;20680;-52
2022/03/28 08:54:54;;;;;;;21.07;11.40;;;;;;;17.35;41.44;100605.41;5112411;28;20201;-52
2022/03/28 08:57:21;;;;;;;19.30;11.20;;;;;;;17.43;41.25;100600.72;5112291;28;20234;-53
2022/03/28 08:59:48;;;;;;;17.10;11.90;;;;;;;17.52;41.45;100603.88;5112466;28;20587;-53
2022/03/28 09:02:32;;;;;;;16.20;10.53;;;;;;;17.23;41.98;100598.03;5112304;28;20195;-52
2022/03/28 09:05:01;;;;;;;18.50;10.87;;;;;;;17.20;41.96;100586.78;5112322;28;20195;-53
2022/03/28 09:07:29;;;;;;;24.57;11.63;;;;;;;17.12;42.52;100583.59;5112344;28;20191;-53
2022/03/28 09:09:59;;;;;;;15.83;10.17;;;;;;;17.15;41.99;100581.72;5112351;28;20712;-52
2022/03/28 09:12:26;;;;;;;20.90;11.73;;;;;;;17.22;42.64;100585.81;5112219;28;20230;-52
2022/03/28 09:14:58;;;;;;;16.40;10.60;;;;;;;17.15;42.95;100573.84;5112118;28;20198;-51
2022/03/28 09:17:26;;;;;;;14.87;9.93;;;;;;;17.06;43.34;100577.66;5111711;28;20230;-52
2022/03/28 09:19:55;;;;;;;19.17;10.80;;;;;;;16.85;42.93;100562.75;5112494;28;20585;-51
2022/03/28 09:22:24;;;;;;;15.23;10.70;;;;;;;16.95;43.18;100560.63;5112037;28;20678;-51
2022/03/28 09:24:53;;;;;;;15.37;11.30;;;;;;;16.66;44.30;100559.97;5112104;28;20205;-52
2022/03/28 09:27:22;;;;;;;15.80;10.90;;;;;;;16.82;43.99;100544.50;5101276;28;20215;-50
2022/03/28 09:29:57;;;;;;;19.30;10.87;;;;;;;17.03;43.07;100545.47;5091133;28;20314;-52
2022/03/28 09:32:26;;;;;;;17.87;10.97;;;;;;;17.10;42.98;100551.31;5091202;28;20257;-52
2022/03/28 09:35:10;;;;;;;16.73;11.20;;;;;;;17.56;42.65;100547.72;5091319;28;20219;-51
2022/03/28 09:37:58;;;;;;;16.87;10.40;;;;;;;17.40;42.73;100527.34;5090101;28;20769;-52
2022/03/28 09:40:31;;;;;;;20.13;10.87;;;;;;;17.33;43.05;100539.00;5091052;28;20227;-51
2022/03/28 09:42:59;;;;;;;15.37;10.30;;;;;;;17.33;42.91;100520.63;5100193;28;20233;-51
2022/03/28 09:45:28;;;;;;;13.23;11.07;;;;;;;17.38;42.67;100534.41;5108721;28;20807;-50
2022/03/28 09:48:01;;;;;;;14.73;10.67;;;;;;;17.31;43.62;100527.72;5111748;28;20194;-53
2022/03/28 09:50:32;;;;;;;16.00;10.53;;;;;;;17.34;42.98;100518.88;5111176;28;20195;-51
2022/03/28 09:53:20;;;;;;;13.47;11.47;;;;;;;17.07;43.55;100502.44;5111574;28;20562;-52
2022/03/28 09:55:53;;;;;;;12.27;10.03;;;;;;;17.24;43.24;100510.53;5111304;28;20299;-52
2022/03/28 09:58:46;;;;;;;14.63;11.37;;;;;;;17.30;42.83;100512.03;5111163;28;20227;-50
2022/03/28 10:01:18;;;;;;;14.30;10.73;;;;;;;17.34;42.93;100517.09;5111177;28;20624;-51
2022/03/28 10:03:47;;;;;;;17.17;11.43;;;;;;;17.39;42.91;100506.41;5111199;28;20195;-52
2022/03/28 10:06:14;;;;;;;17.67;11.30;;;;;;;17.40;42.77;100501.09;5111119;28;20198;-52
2022/03/28 10:08:42;;;;;;;22.10;11.73;;;;;;;17.42;42.58;100496.63;5111298;28;20294;-51
2022/03/28 10:11:10;;;;;;;22.57;10.47;;;;;;;17.53;43.01;100483.06;5109815;28;20220;-51
2022/03/28 10:13:37;;;;;;;19.30;10.63;;;;;;;17.62;42.79;100479.19;5110910;28;20751;-51
2022/03/28 10:16:05;;;;;;;10.90;9.80;;;;;;;17.86;41.91;100472.06;5110553;28;20232;-52
2022/03/28 10:18:34;;;;;;;14.17;11.03;;;;;;;18.00;42.52;100472.31;5110603;28;20241;-52
2022/03/28 10:21:03;;;;;;;19.17;10.90;;;;;;;18.10;42.08;100466.59;5110833;28;20277;-52
2022/03/28 10:23:37;;;;;;;21.57;10.93;;;;;;;18.19;41.76;100465.31;5110975;28;20659;-53
2022/03/28 10:26:09;;;;;;;18.10;11.33;;;;;;;18.15;40.96;100455.88;5110058;28;20207;-53
2022/03/28 10:28:37;;;;;;;20.97;12.27;;;;;;;18.16;41.33;100448.88;5110844;28;20690;-52
2022/03/28 10:31:16;;;;;;;12.87;10.97;;;;;;;17.93;41.55;100442.84;5110818;28;20718;-52
2022/03/28 10:33:51;;;;;;;14.17;10.77;;;;;;;17.90;41.98;100439.50;5110624;28;20198;-53
2022/03/28 10:36:24;;;;;;;16.27;11.00;;;;;;;17.93;41.98;100416.59;5110732;28;20693;-51
2022/03/28 10:38:52;;;;;;;16.47;10.23;;;;;;;17.97;41.81;100430.41;5110393;28;20241;-52
2022/03/28 10:41:21;;;;;;;12.83;10.50;;;;;;;17.99;41.71;100416.31;5110315;28;20194;-51
2022/03/28 10:43:49;;;;;;;14.40;10.23;;;;;;;18.06;41.15;100407.22;5110694;28;20204;-51
2022/03/28 10:46:18;;;;;;;14.70;11.50;;;;;;;18.01;41.40;100408.34;5110349;28;20198;-54
2022/03/28 10:48:48;;;;;;;15.40;10.77;;;;;;;18.01;41.33;100403.97;5110858;28;20598;-53
2022/03/28 10:51:18;;;;;;;17.27;10.40;;;;;;;18.04;41.33;100403.81;5110365;28;20199;-51
2022/03/28 10:53:47;;;;;;;14.53;10.27;;;;;;;18.06;41.79;100394.06;5110373;28;20587;-53
2022/03/28 10:56:17;;;;;;;17.17;10.83;;;;;;;18.09;41.67;100386.06;5110094;28;20233;-53
2022/03/28 10:58:49;;;;;;;15.30;10.73;;;;;;;18.14;41.00;100386.72;5109494;28;20222;-52
2022/03/28 11:01:35;;;;;;;21.30;10.53;;;;;;;18.33;41.04;100380.59;5109654;28;20199;-52
2022/03/28 11:04:04;;;;;;;14.67;10.33;;;;;;;18.40;40.56;100374.13;5110728;28;20194;-52
2022/03/28 11:06:59;;;;;;;14.63;10.60;;;;;;;18.49;40.24;100369.28;5110211;28;20695;-52
2022/03/28 11:09:48;;;;;;;17.37;10.37;;;;;;;18.54;40.11;100355.91;5106673;28;20217;-53
2022/03/28 11:12:19;;;;;;;14.67;10.33;;;;;;;18.68;40.44;100350.03;5097348;28;20283;-53
2022/03/28 11:14:57;;;;;;;15.83;10.97;;;;;;;18.74;40.11;100353.19;5109553;28;20587;-53
2022/03/28 11:17:27;;;;;;;14.73;10.80;;;;;;;18.87;39.72;100348.19;5109406;28;20230;-52
2022/03/28 11:19:57;;;;;;;15.80;11.00;;;;;;;18.62;40.02;100331.94;5109746;28;20223;-53
2022/03/28 11:22:42;;;;;;;11.43;10.33;;;;;;;18.49;40.31;100337.75;5109600;28;20268;-52